sensor_id;sensor_type;location;lat;lon;timestamp;temperature;humidity
1337;DHT22;662;48.814;9.318;2023-01-10T00:01:59;7.70;75.00
1337;DHT22;662;48.814;9.318;2023-01-10T00:04:25;7.70;75.00
1337;DHT22;662;48.814;9.318;2023-01-10T00:06:51;7.70;75.00
1337;DHT22;662;48.814;9.318;2023-01-10T00:09:17;7.70;74.90
1337;DHT22;662;48.814;9.318;2023-01-10T00:11:42;7.60;74.90
1337;DHT22;662;48.814;9.318;2023-01-10T00:14:27;7.60;75.00
1337;DHT22;662;48.814;9.318;2023-01-10T00:16:54;7.60;75.00
1337;DHT22;662;48.814;9.318;2023-01-10T00:19:20;7.60;75.20
1337;DHT22;662;48.814;9.318;2023-01-10T00:21:45;7.60;75.30
1337;DHT22;662;48.814;9.318;2023-01-10T00:24:11;7.60;75.40
1337;DHT22;662;48.814;9.318;2023-01-10T00:26:49;7.60;75.40
1337;DHT22;662;48.814;9.318;2023-01-10T00:29:19;7.60;75.50
1337;DHT22;662;48.814;9.318;2023-01-10T00:31:45;7.60;75.40
1337;DHT22;662;48.814;9.318;2023-01-10T00:34:11;7.60;75.30
1337;DHT22;662;48.814;9.318;2023-01-10T00:36:37;7.60;75.30
1337;DHT22;662;48.814;9.318;2023-01-10T00:39:03;7.60;75.30
1337;DHT22;662;48.814;9.318;2023-01-10T00:41:28;7.60;75.30
1337;DHT22;662;48.814;9.318;2023-01-10T00:44:12;7.60;75.40
1337;DHT22;662;48.814;9.318;2023-01-10T00:46:38;7.50;75.40
1337;DHT22;662;48.814;9.318;2023-01-10T00:49:04;7.60;75.50
1337;DHT22;662;48.814;9.318;2023-01-10T00:51:32;7.60;75.50
1337;DHT22;662;48.814;9.318;2023-01-10T00:53:58;7.60;75.60
1337;DHT22;662;48.814;9.318;2023-01-10T00:56:24;7.60;75.60
1337;DHT22;662;48.814;9.318;2023-01-10T00:58:49;7.60;76.30
1337;DHT22;662;48.814;9.318;2023-01-10T01:01:15;7.60;75.60
1337;DHT22;662;48.814;9.318;2023-01-10T01:03:40;7.60;75.50
1337;DHT22;662;48.814;9.318;2023-01-10T01:06:07;7.60;75.40
1337;DHT22;662;48.814;9.318;2023-01-10T01:08:32;7.60;75.40
1337;DHT22;662;48.814;9.318;2023-01-10T01:10:58;7.60;75.30
1337;DHT22;662;48.814;9.318;2023-01-10T01:13:24;7.60;75.30
1337;DHT22;662;48.814;9.318;2023-01-10T01:15:50;7.70;75.50
1337;DHT22;662;48.814;9.318;2023-01-10T01:18:18;7.70;75.50
1337;DHT22;662;48.814;9.318;2023-01-10T01:20:46;7.70;75.60
1337;DHT22;662;48.814;9.318;2023-01-10T01:23:12;7.70;75.60
1337;DHT22;662;48.814;9.318;2023-01-10T01:25:38;7.70;75.50
1337;DHT22;662;48.814;9.318;2023-01-10T01:28:04;7.70;75.50
1337;DHT22;662;48.814;9.318;2023-01-10T01:30:30;7.70;75.60
1337;DHT22;662;48.814;9.318;2023-01-10T01:32:55;7.80;75.80
1337;DHT22;662;48.814;9.318;2023-01-10T01:35:21;7.70;75.80
1337;DHT22;662;48.814;9.318;2023-01-10T01:37:47;7.80;76.50
1337;DHT22;662;48.814;9.318;2023-01-10T01:40:15;7.70;75.60
1337;DHT22;662;48.814;9.318;2023-01-10T01:42:41;7.80;75.70
1337;DHT22;662;48.814;9.318;2023-01-10T01:47:35;7.80;75.90
1337;DHT22;662;48.814;9.318;2023-01-10T01:50:05;7.80;75.70
1337;DHT22;662;48.814;9.318;2023-01-10T01:52:34;7.80;75.70
1337;DHT22;662;48.814;9.318;2023-01-10T01:55:02;7.80;75.60
1337;DHT22;662;48.814;9.318;2023-01-10T01:57:30;7.70;75.40
1337;DHT22;662;48.814;9.318;2023-01-10T01:59:56;7.80;75.50
1337;DHT22;662;48.814;9.318;2023-01-10T02:02:27;7.80;75.40
1337;DHT22;662;48.814;9.318;2023-01-10T02:05:05;7.80;75.40
1337;DHT22;662;48.814;9.318;2023-01-10T02:07:37;7.80;75.10
1337;DHT22;662;48.814;9.318;2023-01-10T02:10:26;7.80;75.20
1337;DHT22;662;48.814;9.318;2023-01-10T02:12:57;7.80;75.20
1337;DHT22;662;48.814;9.318;2023-01-10T02:15:24;7.80;75.10
1337;DHT22;662;48.814;9.318;2023-01-10T02:17:51;7.80;75.00
1337;DHT22;662;48.814;9.318;2023-01-10T02:20:18;7.80;74.90
1337;DHT22;662;48.814;9.318;2023-01-10T02:28:43;7.90;74.90
1337;DHT22;662;48.814;9.318;2023-01-10T02:39:31;7.80;74.70
1337;DHT22;662;48.814;9.318;2023-01-10T02:42:06;7.80;74.70
1337;DHT22;662;48.814;9.318;2023-01-10T02:47:12;7.70;75.00
1337;DHT22;662;48.814;9.318;2023-01-10T02:49:42;7.70;75.10
1337;DHT22;662;48.814;9.318;2023-01-10T02:52:09;7.70;75.20
1337;DHT22;662;48.814;9.318;2023-01-10T02:54:36;7.70;75.30
1337;DHT22;662;48.814;9.318;2023-01-10T02:59:58;7.70;75.20
1337;DHT22;662;48.814;9.318;2023-01-10T03:03:19;7.70;75.20
1337;DHT22;662;48.814;9.318;2023-01-10T03:11:06;7.70;75.00
1337;DHT22;662;48.814;9.318;2023-01-10T03:16:07;7.60;74.90
1337;DHT22;662;48.814;9.318;2023-01-10T03:18:53;7.60;74.90
1337;DHT22;662;48.814;9.318;2023-01-10T03:21:22;7.60;74.80
1337;DHT22;662;48.814;9.318;2023-01-10T03:23:50;7.60;74.80
1337;DHT22;662;48.814;9.318;2023-01-10T03:26:21;7.60;74.70
1337;DHT22;662;48.814;9.318;2023-01-10T03:28:56;7.60;74.60
1337;DHT22;662;48.814;9.318;2023-01-10T03:31:31;7.60;75.20
1337;DHT22;662;48.814;9.318;2023-01-10T03:33:58;7.60;74.50
1337;DHT22;662;48.814;9.318;2023-01-10T03:36:45;7.60;74.40
1337;DHT22;662;48.814;9.318;2023-01-10T03:39:16;7.60;74.40
1337;DHT22;662;48.814;9.318;2023-01-10T03:42:07;7.60;74.50
1337;DHT22;662;48.814;9.318;2023-01-10T03:44:45;7.50;74.50
1337;DHT22;662;48.814;9.318;2023-01-10T03:52:33;7.60;74.50
1337;DHT22;662;48.814;9.318;2023-01-10T03:54:59;7.60;74.50
1337;DHT22;662;48.814;9.318;2023-01-10T03:57:27;7.60;74.50
1337;DHT22;662;48.814;9.318;2023-01-10T03:59:54;7.60;74.40
1337;DHT22;662;48.814;9.318;2023-01-10T04:02:26;7.60;74.40
1337;DHT22;662;48.814;9.318;2023-01-10T04:04:52;7.60;74.40
1337;DHT22;662;48.814;9.318;2023-01-10T04:07:18;7.70;74.40
1337;DHT22;662;48.814;9.318;2023-01-10T04:09:43;7.70;74.90
1337;DHT22;662;48.814;9.318;2023-01-10T04:12:09;7.70;74.20
1337;DHT22;662;48.814;9.318;2023-01-10T04:14:35;7.70;74.00
1337;DHT22;662;48.814;9.318;2023-01-10T04:17:00;7.70;73.90
1337;DHT22;662;48.814;9.318;2023-01-10T04:19:26;7.70;73.90
1337;DHT22;662;48.814;9.318;2023-01-10T04:21:52;7.70;73.70
1337;DHT22;662;48.814;9.318;2023-01-10T04:24:17;7.70;73.70
1337;DHT22;662;48.814;9.318;2023-01-10T04:26:43;7.70;73.60
1337;DHT22;662;48.814;9.318;2023-01-10T04:29:09;7.70;73.50
1337;DHT22;662;48.814;9.318;2023-01-10T04:31:35;7.70;73.30
1337;DHT22;662;48.814;9.318;2023-01-10T04:34:00;7.70;73.30
1337;DHT22;662;48.814;9.318;2023-01-10T04:36:26;7.60;73.20
1337;DHT22;662;48.814;9.318;2023-01-10T04:38:52;7.60;73.20
1337;DHT22;662;48.814;9.318;2023-01-10T04:41:18;7.60;73.30
1337;DHT22;662;48.814;9.318;2023-01-10T04:43:43;7.60;73.20
1337;DHT22;662;48.814;9.318;2023-01-10T04:46:09;7.60;73.10
1337;DHT22;662;48.814;9.318;2023-01-10T04:48:35;7.60;73.20
1337;DHT22;662;48.814;9.318;2023-01-10T04:51:01;7.60;73.20
1337;DHT22;662;48.814;9.318;2023-01-10T04:53:27;7.60;73.20
1337;DHT22;662;48.814;9.318;2023-01-10T04:55:53;7.60;73.10
1337;DHT22;662;48.814;9.318;2023-01-10T04:58:18;7.60;73.20
1337;DHT22;662;48.814;9.318;2023-01-10T05:00:44;7.60;73.10
1337;DHT22;662;48.814;9.318;2023-01-10T05:03:09;7.60;73.20
1337;DHT22;662;48.814;9.318;2023-01-10T05:05:35;7.60;73.20
1337;DHT22;662;48.814;9.318;2023-01-10T05:08:00;7.60;73.20
1337;DHT22;662;48.814;9.318;2023-01-10T05:10:26;7.60;73.10
1337;DHT22;662;48.814;9.318;2023-01-10T05:12:52;7.60;73.00
1337;DHT22;662;48.814;9.318;2023-01-10T05:15:17;7.60;73.00
1337;DHT22;662;48.814;9.318;2023-01-10T05:17:45;7.60;72.90
1337;DHT22;662;48.814;9.318;2023-01-10T05:20:11;7.60;72.90
1337;DHT22;662;48.814;9.318;2023-01-10T05:22:38;7.60;72.60
1337;DHT22;662;48.814;9.318;2023-01-10T05:25:04;7.60;72.40
1337;DHT22;662;48.814;9.318;2023-01-10T05:27:30;7.60;72.30
1337;DHT22;662;48.814;9.318;2023-01-10T05:29:55;7.60;72.10
1337;DHT22;662;48.814;9.318;2023-01-10T05:32:21;7.50;72.50
1337;DHT22;662;48.814;9.318;2023-01-10T05:34:47;7.50;71.60
1337;DHT22;662;48.814;9.318;2023-01-10T05:37:12;7.50;71.70
1337;DHT22;662;48.814;9.318;2023-01-10T05:39:38;7.50;71.70
1337;DHT22;662;48.814;9.318;2023-01-10T05:42:05;7.40;71.60
1337;DHT22;662;48.814;9.318;2023-01-10T05:44:31;7.50;71.80
1337;DHT22;662;48.814;9.318;2023-01-10T05:46:56;7.50;71.70
1337;DHT22;662;48.814;9.318;2023-01-10T05:49:22;7.50;71.80
1337;DHT22;662;48.814;9.318;2023-01-10T05:51:48;7.40;71.60
1337;DHT22;662;48.814;9.318;2023-01-10T05:54:13;7.50;71.60
1337;DHT22;662;48.814;9.318;2023-01-10T05:56:39;7.50;71.40
1337;DHT22;662;48.814;9.318;2023-01-10T05:59:04;7.50;71.20
1337;DHT22;662;48.814;9.318;2023-01-10T06:01:30;7.50;71.20
1337;DHT22;662;48.814;9.318;2023-01-10T06:03:56;7.50;70.80
1337;DHT22;662;48.814;9.318;2023-01-10T06:06:21;7.50;70.60
1337;DHT22;662;48.814;9.318;2023-01-10T06:08:47;7.50;70.60
1337;DHT22;662;48.814;9.318;2023-01-10T06:11:12;7.50;70.20
1337;DHT22;662;48.814;9.318;2023-01-10T06:13:38;7.50;70.00
1337;DHT22;662;48.814;9.318;2023-01-10T06:16:04;7.50;70.10
1337;DHT22;662;48.814;9.318;2023-01-10T06:18:29;7.50;69.70
1337;DHT22;662;48.814;9.318;2023-01-10T06:20:55;7.50;69.70
1337;DHT22;662;48.814;9.318;2023-01-10T06:23:21;7.50;69.70
1337;DHT22;662;48.814;9.318;2023-01-10T06:25:46;7.60;69.90
1337;DHT22;662;48.814;9.318;2023-01-10T06:28:13;7.60;69.70
1337;DHT22;662;48.814;9.318;2023-01-10T06:30:40;7.60;69.60
1337;DHT22;662;48.814;9.318;2023-01-10T06:33:08;7.60;69.40
1337;DHT22;662;48.814;9.318;2023-01-10T06:35:35;7.60;69.40
1337;DHT22;662;48.814;9.318;2023-01-10T06:38:01;7.60;69.30
1337;DHT22;662;48.814;9.318;2023-01-10T06:40:27;7.60;68.90
1337;DHT22;662;48.814;9.318;2023-01-10T06:42:53;7.60;68.80
1337;DHT22;662;48.814;9.318;2023-01-10T06:45:19;7.50;68.40
1337;DHT22;662;48.814;9.318;2023-01-10T06:47:44;7.50;68.20
1337;DHT22;662;48.814;9.318;2023-01-10T06:50:11;7.60;68.20
1337;DHT22;662;48.814;9.318;2023-01-10T06:52:37;7.50;68.00
1337;DHT22;662;48.814;9.318;2023-01-10T06:55:04;7.50;68.00
1337;DHT22;662;48.814;9.318;2023-01-10T06:57:29;7.50;68.00
1337;DHT22;662;48.814;9.318;2023-01-10T06:59:55;7.50;67.60
1337;DHT22;662;48.814;9.318;2023-01-10T07:02:21;7.50;67.10
1337;DHT22;662;48.814;9.318;2023-01-10T07:04:49;7.50;67.00
1337;DHT22;662;48.814;9.318;2023-01-10T07:07:15;7.50;66.90
1337;DHT22;662;48.814;9.318;2023-01-10T07:09:41;7.50;66.70
1337;DHT22;662;48.814;9.318;2023-01-10T07:12:06;7.40;66.00
1337;DHT22;662;48.814;9.318;2023-01-10T07:14:32;7.40;66.00
1337;DHT22;662;48.814;9.318;2023-01-10T07:16:58;7.40;65.80
1337;DHT22;662;48.814;9.318;2023-01-10T07:19:24;7.40;65.80
1337;DHT22;662;48.814;9.318;2023-01-10T07:21:49;7.40;65.80
1337;DHT22;662;48.814;9.318;2023-01-10T07:24:15;7.40;66.00
1337;DHT22;662;48.814;9.318;2023-01-10T07:26:41;7.40;65.90
1337;DHT22;662;48.814;9.318;2023-01-10T07:29:06;7.40;66.00
1337;DHT22;662;48.814;9.318;2023-01-10T07:31:32;7.40;66.10
1337;DHT22;662;48.814;9.318;2023-01-10T07:33:58;7.40;66.20
1337;DHT22;662;48.814;9.318;2023-01-10T07:36:23;7.50;66.10
1337;DHT22;662;48.814;9.318;2023-01-10T07:38:49;7.50;66.00
1337;DHT22;662;48.814;9.318;2023-01-10T07:41:15;7.50;66.00
1337;DHT22;662;48.814;9.318;2023-01-10T07:43:40;7.50;66.10
1337;DHT22;662;48.814;9.318;2023-01-10T07:46:06;7.50;66.00
1337;DHT22;662;48.814;9.318;2023-01-10T07:48:34;7.50;65.70
1337;DHT22;662;48.814;9.318;2023-01-10T07:51:01;7.60;65.80
1337;DHT22;662;48.814;9.318;2023-01-10T07:53:28;7.60;65.60
1337;DHT22;662;48.814;9.318;2023-01-10T07:55:57;7.60;65.60
1337;DHT22;662;48.814;9.318;2023-01-10T07:58:22;7.60;65.40
1337;DHT22;662;48.814;9.318;2023-01-10T08:00:48;7.70;65.40
1337;DHT22;662;48.814;9.318;2023-01-10T08:03:15;7.70;65.30
1337;DHT22;662;48.814;9.318;2023-01-10T08:05:41;7.70;65.40
1337;DHT22;662;48.814;9.318;2023-01-10T08:08:09;7.70;65.50
1337;DHT22;662;48.814;9.318;2023-01-10T08:10:37;7.70;65.40
1337;DHT22;662;48.814;9.318;2023-01-10T08:13:02;7.70;65.20
1337;DHT22;662;48.814;9.318;2023-01-10T08:15:28;7.70;65.40
1337;DHT22;662;48.814;9.318;2023-01-10T08:17:54;7.70;65.30
1337;DHT22;662;48.814;9.318;2023-01-10T08:20:19;7.80;65.40
1337;DHT22;662;48.814;9.318;2023-01-10T08:22:45;7.80;65.40
1337;DHT22;662;48.814;9.318;2023-01-10T08:25:11;7.80;65.40
1337;DHT22;662;48.814;9.318;2023-01-10T08:27:37;7.80;65.40
1337;DHT22;662;48.814;9.318;2023-01-10T08:30:04;7.80;65.30
1337;DHT22;662;48.814;9.318;2023-01-10T08:32:29;7.80;65.00
1337;DHT22;662;48.814;9.318;2023-01-10T08:34:55;7.80;64.90
1337;DHT22;662;48.814;9.318;2023-01-10T08:37:21;7.80;65.70
1337;DHT22;662;48.814;9.318;2023-01-10T08:39:46;7.90;65.30
1337;DHT22;662;48.814;9.318;2023-01-10T08:42:12;7.90;65.30
1337;DHT22;662;48.814;9.318;2023-01-10T08:44:38;7.90;65.30
1337;DHT22;662;48.814;9.318;2023-01-10T08:47:04;8.00;65.30
1337;DHT22;662;48.814;9.318;2023-01-10T08:49:29;8.00;65.10
1337;DHT22;662;48.814;9.318;2023-01-10T08:51:55;8.00;65.90
1337;DHT22;662;48.814;9.318;2023-01-10T08:54:20;8.00;64.40
1337;DHT22;662;48.814;9.318;2023-01-10T08:56:46;8.00;64.00
1337;DHT22;662;48.814;9.318;2023-01-10T08:59:11;8.10;64.00
1337;DHT22;662;48.814;9.318;2023-01-10T09:01:37;8.10;63.80
1337;DHT22;662;48.814;9.318;2023-01-10T09:04:03;8.10;63.60
1337;DHT22;662;48.814;9.318;2023-01-10T09:06:29;8.10;63.70
1337;DHT22;662;48.814;9.318;2023-01-10T09:08:55;8.10;64.00
1337;DHT22;662;48.814;9.318;2023-01-10T09:11:20;8.20;64.80
1337;DHT22;662;48.814;9.318;2023-01-10T09:13:49;8.20;63.70
1337;DHT22;662;48.814;9.318;2023-01-10T09:16:16;8.20;63.60
1337;DHT22;662;48.814;9.318;2023-01-10T09:18:42;8.20;63.70
1337;DHT22;662;48.814;9.318;2023-01-10T09:21:07;8.20;63.70
1337;DHT22;662;48.814;9.318;2023-01-10T09:23:33;8.30;64.00
1337;DHT22;662;48.814;9.318;2023-01-10T09:25:59;8.30;63.90
1337;DHT22;662;48.814;9.318;2023-01-10T09:28:25;8.40;64.00
1337;DHT22;662;48.814;9.318;2023-01-10T09:30:50;8.40;64.00
1337;DHT22;662;48.814;9.318;2023-01-10T09:33:16;8.50;63.90
1337;DHT22;662;48.814;9.318;2023-01-10T09:35:42;8.50;63.90
1337;DHT22;662;48.814;9.318;2023-01-10T09:38:14;8.60;64.00
1337;DHT22;662;48.814;9.318;2023-01-10T09:53:10;8.60;62.10
1337;DHT22;662;48.814;9.318;2023-01-10T09:55:37;8.50;62.20
1337;DHT22;662;48.814;9.318;2023-01-10T09:58:08;8.40;63.30
1337;DHT22;662;48.814;9.318;2023-01-10T10:00:51;8.40;64.00
1337;DHT22;662;48.814;9.318;2023-01-10T10:03:37;8.40;64.30
1337;DHT22;662;48.814;9.318;2023-01-10T10:06:06;8.20;64.50
1337;DHT22;662;48.814;9.318;2023-01-10T10:08:35;8.20;64.80
1337;DHT22;662;48.814;9.318;2023-01-10T10:31:59;8.30;65.30
1337;DHT22;662;48.814;9.318;2023-01-10T10:36:51;8.30;65.30
1337;DHT22;662;48.814;9.318;2023-01-10T10:39:42;8.30;65.60
1337;DHT22;662;48.814;9.318;2023-01-10T10:42:12;8.30;65.70
1337;DHT22;662;48.814;9.318;2023-01-10T10:44:52;8.30;65.90
1337;DHT22;662;48.814;9.318;2023-01-10T10:47:21;8.30;66.00
1337;DHT22;662;48.814;9.318;2023-01-10T10:50:35;8.30;66.10
1337;DHT22;662;48.814;9.318;2023-01-10T10:52:43;8.40;66.20
1337;DHT22;662;48.814;9.318;2023-01-10T10:55:16;8.40;66.00
1337;DHT22;662;48.814;9.318;2023-01-10T10:57:44;8.50;66.20
1337;DHT22;662;48.814;9.318;2023-01-10T11:00:31;8.60;66.10
1337;DHT22;662;48.814;9.318;2023-01-10T11:05:35;8.60;65.20
1337;DHT22;662;48.814;9.318;2023-01-10T11:08:04;8.70;65.40
1337;DHT22;662;48.814;9.318;2023-01-10T11:10:35;8.70;65.90
1337;DHT22;662;48.814;9.318;2023-01-10T11:13:12;8.80;64.80
1337;DHT22;662;48.814;9.318;2023-01-10T11:15:43;8.70;64.60
1337;DHT22;662;48.814;9.318;2023-01-10T11:18:13;8.70;64.40
1337;DHT22;662;48.814;9.318;2023-01-10T11:21:07;8.70;64.20
1337;DHT22;662;48.814;9.318;2023-01-10T11:23:52;8.70;64.30
1337;DHT22;662;48.814;9.318;2023-01-10T11:26:37;8.70;64.70
1337;DHT22;662;48.814;9.318;2023-01-10T11:29:26;8.60;64.80
1337;DHT22;662;48.814;9.318;2023-01-10T11:31:54;8.60;64.60
1337;DHT22;662;48.814;9.318;2023-01-10T11:34:29;8.60;65.00
1337;DHT22;662;48.814;9.318;2023-01-10T11:37:07;8.70;65.40
1337;DHT22;662;48.814;9.318;2023-01-10T11:39:42;8.70;64.90
1337;DHT22;662;48.814;9.318;2023-01-10T11:44:48;8.80;64.50
1337;DHT22;662;48.814;9.318;2023-01-10T11:47:14;8.80;64.20
1337;DHT22;662;48.814;9.318;2023-01-10T11:49:46;8.90;64.20
1337;DHT22;662;48.814;9.318;2023-01-10T11:52:24;8.90;63.70
1337;DHT22;662;48.814;9.318;2023-01-10T11:54:52;9.00;63.50
1337;DHT22;662;48.814;9.318;2023-01-10T11:57:22;9.10;63.50
1337;DHT22;662;48.814;9.318;2023-01-10T11:59:54;9.20;63.60
1337;DHT22;662;48.814;9.318;2023-01-10T12:02:29;9.30;63.20
1337;DHT22;662;48.814;9.318;2023-01-10T12:04:58;9.40;62.40
1337;DHT22;662;48.814;9.318;2023-01-10T12:07:25;9.40;62.20
1337;DHT22;662;48.814;9.318;2023-01-10T12:09:56;9.40;62.10
1337;DHT22;662;48.814;9.318;2023-01-10T12:12:28;9.40;62.30
1337;DHT22;662;48.814;9.318;2023-01-10T12:14:56;9.40;62.40
1337;DHT22;662;48.814;9.318;2023-01-10T12:17:30;9.40;62.40
1337;DHT22;662;48.814;9.318;2023-01-10T12:19:58;9.30;62.00
1337;DHT22;662;48.814;9.318;2023-01-10T12:22:38;9.30;62.30
1337;DHT22;662;48.814;9.318;2023-01-10T12:25:14;9.30;62.40
1337;DHT22;662;48.814;9.318;2023-01-10T12:27:41;9.20;62.30
1337;DHT22;662;48.814;9.318;2023-01-10T12:30:49;9.10;62.40
1337;DHT22;662;48.814;9.318;2023-01-10T12:33:17;9.10;62.40
1337;DHT22;662;48.814;9.318;2023-01-10T12:36:01;9.10;62.50
1337;DHT22;662;48.814;9.318;2023-01-10T12:38:46;9.10;63.20
1337;DHT22;662;48.814;9.318;2023-01-10T12:44:38;9.30;62.50
1337;DHT22;662;48.814;9.318;2023-01-10T12:49:50;9.40;61.60
1337;DHT22;662;48.814;9.318;2023-01-10T12:52:28;9.50;61.40
1337;DHT22;662;48.814;9.318;2023-01-10T12:54:55;9.60;60.90
1337;DHT22;662;48.814;9.318;2023-01-10T12:57:47;9.60;59.60
1337;DHT22;662;48.814;9.318;2023-01-10T13:00:21;9.70;59.50
1337;DHT22;662;48.814;9.318;2023-01-10T13:02:52;9.70;59.30
1337;DHT22;662;48.814;9.318;2023-01-10T13:05:29;9.60;58.80
1337;DHT22;662;48.814;9.318;2023-01-10T13:08:15;9.60;58.80
1337;DHT22;662;48.814;9.318;2023-01-10T13:10:44;9.60;58.70
1337;DHT22;662;48.814;9.318;2023-01-10T13:13:28;9.60;58.20
1337;DHT22;662;48.814;9.318;2023-01-10T13:16:15;9.60;58.50
1337;DHT22;662;48.814;9.318;2023-01-10T13:21:23;9.60;58.00
1337;DHT22;662;48.814;9.318;2023-01-10T13:23:51;9.60;57.80
1337;DHT22;662;48.814;9.318;2023-01-10T13:26:17;9.60;57.30
1337;DHT22;662;48.814;9.318;2023-01-10T13:28:53;9.60;56.40
1337;DHT22;662;48.814;9.318;2023-01-10T13:31:33;9.50;55.80
1337;DHT22;662;48.814;9.318;2023-01-10T13:34:05;9.50;55.30
1337;DHT22;662;48.814;9.318;2023-01-10T13:36:57;9.50;55.40
1337;DHT22;662;48.814;9.318;2023-01-10T13:39:39;9.40;55.70
1337;DHT22;662;48.814;9.318;2023-01-10T14:01:34;9.40;55.10
1337;DHT22;662;48.814;9.318;2023-01-10T14:04:49;9.30;55.10
1337;DHT22;662;48.814;9.318;2023-01-10T14:07:48;9.40;55.50
1337;DHT22;662;48.814;9.318;2023-01-10T14:10:23;9.50;55.50
1337;DHT22;662;48.814;9.318;2023-01-10T14:12:59;9.50;55.20
1337;DHT22;662;48.814;9.318;2023-01-10T14:15:41;9.50;55.10
1337;DHT22;662;48.814;9.318;2023-01-10T14:21:08;9.50;54.50
1337;DHT22;662;48.814;9.318;2023-01-10T14:23:39;9.50;54.70
1337;DHT22;662;48.814;9.318;2023-01-10T14:26:07;9.60;54.80
1337;DHT22;662;48.814;9.318;2023-01-10T14:28:39;9.60;54.60
1337;DHT22;662;48.814;9.318;2023-01-10T14:33:43;9.60;54.70
1337;DHT22;662;48.814;9.318;2023-01-10T14:36:30;9.70;54.60
1337;DHT22;662;48.814;9.318;2023-01-10T14:38:59;9.70;54.70
1337;DHT22;662;48.814;9.318;2023-01-10T14:41:38;9.70;54.50
1337;DHT22;662;48.814;9.318;2023-01-10T14:44:10;9.70;53.60
1337;DHT22;662;48.814;9.318;2023-01-10T14:46:55;9.70;53.40
1337;DHT22;662;48.814;9.318;2023-01-10T14:51:48;9.60;53.20
1337;DHT22;662;48.814;9.318;2023-01-10T14:54:16;9.50;53.20
1337;DHT22;662;48.814;9.318;2023-01-10T14:56:48;9.50;53.60
1337;DHT22;662;48.814;9.318;2023-01-10T14:59:19;9.50;53.80
1337;DHT22;662;48.814;9.318;2023-01-10T15:01:54;9.40;53.80
1337;DHT22;662;48.814;9.318;2023-01-10T15:04:29;9.40;53.90
1337;DHT22;662;48.814;9.318;2023-01-10T15:07:15;9.40;54.20
1337;DHT22;662;48.814;9.318;2023-01-10T15:09:51;9.40;54.00
1337;DHT22;662;48.814;9.318;2023-01-10T15:12:17;9.30;54.00
1337;DHT22;662;48.814;9.318;2023-01-10T15:14:45;9.30;54.30
1337;DHT22;662;48.814;9.318;2023-01-10T15:17:15;9.30;54.40
1337;DHT22;662;48.814;9.318;2023-01-10T15:19:43;9.30;54.70
1337;DHT22;662;48.814;9.318;2023-01-10T15:22:37;9.30;54.70
1337;DHT22;662;48.814;9.318;2023-01-10T15:25:06;9.20;54.30
1337;DHT22;662;48.814;9.318;2023-01-10T15:27:49;9.10;54.50
1337;DHT22;662;48.814;9.318;2023-01-10T15:30:27;9.10;54.80
1337;DHT22;662;48.814;9.318;2023-01-10T15:33:01;9.00;54.90
1337;DHT22;662;48.814;9.318;2023-01-10T15:35:28;9.00;54.90
1337;DHT22;662;48.814;9.318;2023-01-10T15:38:03;8.90;54.70
1337;DHT22;662;48.814;9.318;2023-01-10T15:40:36;8.90;54.50
1337;DHT22;662;48.814;9.318;2023-01-10T15:45:43;8.80;54.70
1337;DHT22;662;48.814;9.318;2023-01-10T15:56:28;8.70;54.80
1337;DHT22;662;48.814;9.318;2023-01-10T15:58:55;8.60;54.80
1337;DHT22;662;48.814;9.318;2023-01-10T16:01:21;8.60;54.90
1337;DHT22;662;48.814;9.318;2023-01-10T16:03:56;8.60;55.10
1337;DHT22;662;48.814;9.318;2023-01-10T16:06:23;8.50;55.10
1337;DHT22;662;48.814;9.318;2023-01-10T16:08:53;8.60;55.30
1337;DHT22;662;48.814;9.318;2023-01-10T16:11:23;8.60;55.30
1337;DHT22;662;48.814;9.318;2023-01-10T16:14:09;8.50;55.40
1337;DHT22;662;48.814;9.318;2023-01-10T16:16:35;8.50;55.40
1337;DHT22;662;48.814;9.318;2023-01-10T16:19:00;8.50;55.50
1337;DHT22;662;48.814;9.318;2023-01-10T16:21:31;8.50;55.50
1337;DHT22;662;48.814;9.318;2023-01-10T16:23:58;8.40;55.50
1337;DHT22;662;48.814;9.318;2023-01-10T16:26:23;8.40;55.50
1337;DHT22;662;48.814;9.318;2023-01-10T16:28:49;8.40;55.50
1337;DHT22;662;48.814;9.318;2023-01-10T16:31:14;8.40;55.50
1337;DHT22;662;48.814;9.318;2023-01-10T16:33:40;8.30;55.40
1337;DHT22;662;48.814;9.318;2023-01-10T16:36:14;8.30;55.50
1337;DHT22;662;48.814;9.318;2023-01-10T16:38:40;8.30;55.60
1337;DHT22;662;48.814;9.318;2023-01-10T16:41:09;8.30;55.60
1337;DHT22;662;48.814;9.318;2023-01-10T16:43:54;8.30;55.70
1337;DHT22;662;48.814;9.318;2023-01-10T16:46:20;8.30;55.70
1337;DHT22;662;48.814;9.318;2023-01-10T16:48:46;8.30;55.80
1337;DHT22;662;48.814;9.318;2023-01-10T16:51:18;8.30;55.80
1337;DHT22;662;48.814;9.318;2023-01-10T16:53:44;8.30;55.70
1337;DHT22;662;48.814;9.318;2023-01-10T16:56:13;8.20;55.70
1337;DHT22;662;48.814;9.318;2023-01-10T16:58:39;8.20;55.60
1337;DHT22;662;48.814;9.318;2023-01-10T17:01:04;8.20;55.70
1337;DHT22;662;48.814;9.318;2023-01-10T17:03:34;8.20;55.80
1337;DHT22;662;48.814;9.318;2023-01-10T17:06:03;8.20;55.90
1337;DHT22;662;48.814;9.318;2023-01-10T17:08:29;8.20;56.00
1337;DHT22;662;48.814;9.318;2023-01-10T17:10:59;8.20;56.10
1337;DHT22;662;48.814;9.318;2023-01-10T17:13:28;8.20;55.80
1337;DHT22;662;48.814;9.318;2023-01-10T17:15:55;8.20;55.70
1337;DHT22;662;48.814;9.318;2023-01-10T17:18:23;8.20;55.70
1337;DHT22;662;48.814;9.318;2023-01-10T17:20:53;8.20;55.70
1337;DHT22;662;48.814;9.318;2023-01-10T17:23:18;8.10;55.60
1337;DHT22;662;48.814;9.318;2023-01-10T17:25:44;8.10;55.70
1337;DHT22;662;48.814;9.318;2023-01-10T17:28:12;8.20;55.80
1337;DHT22;662;48.814;9.318;2023-01-10T17:30:41;8.10;55.70
1337;DHT22;662;48.814;9.318;2023-01-10T17:33:07;8.10;55.60
1337;DHT22;662;48.814;9.318;2023-01-10T17:35:40;8.10;55.40
1337;DHT22;662;48.814;9.318;2023-01-10T17:38:06;8.10;55.20
1337;DHT22;662;48.814;9.318;2023-01-10T17:40:33;8.00;55.20
1337;DHT22;662;48.814;9.318;2023-01-10T17:42:59;8.10;55.00
1337;DHT22;662;48.814;9.318;2023-01-10T17:45:24;8.00;54.90
1337;DHT22;662;48.814;9.318;2023-01-10T17:47:50;8.00;54.90
1337;DHT22;662;48.814;9.318;2023-01-10T17:50:17;8.00;55.20
1337;DHT22;662;48.814;9.318;2023-01-10T17:52:43;8.00;55.40
1337;DHT22;662;48.814;9.318;2023-01-10T17:55:08;8.00;55.20
1337;DHT22;662;48.814;9.318;2023-01-10T17:57:34;8.00;55.80
1337;DHT22;662;48.814;9.318;2023-01-10T18:00:03;7.90;55.20
1337;DHT22;662;48.814;9.318;2023-01-10T18:02:29;7.90;55.10
1337;DHT22;662;48.814;9.318;2023-01-10T18:04:55;7.90;55.20
1337;DHT22;662;48.814;9.318;2023-01-10T18:07:20;7.90;55.10
1337;DHT22;662;48.814;9.318;2023-01-10T18:09:46;7.90;55.10
1337;DHT22;662;48.814;9.318;2023-01-10T18:12:11;7.90;55.10
1337;DHT22;662;48.814;9.318;2023-01-10T18:14:37;8.00;55.20
1337;DHT22;662;48.814;9.318;2023-01-10T18:17:06;7.90;55.40
1337;DHT22;662;48.814;9.318;2023-01-10T18:19:33;7.90;55.50
1337;DHT22;662;48.814;9.318;2023-01-10T18:22:00;7.90;55.60
1337;DHT22;662;48.814;9.318;2023-01-10T18:24:25;7.90;55.50
1337;DHT22;662;48.814;9.318;2023-01-10T18:26:51;7.90;55.30
1337;DHT22;662;48.814;9.318;2023-01-10T18:29:17;7.90;55.20
1337;DHT22;662;48.814;9.318;2023-01-10T18:31:42;7.90;55.00
1337;DHT22;662;48.814;9.318;2023-01-10T18:34:08;8.00;55.10
1337;DHT22;662;48.814;9.318;2023-01-10T18:36:34;7.90;55.20
1337;DHT22;662;48.814;9.318;2023-01-10T18:39:02;7.90;55.30
1337;DHT22;662;48.814;9.318;2023-01-10T18:41:28;7.90;55.30
1337;DHT22;662;48.814;9.318;2023-01-10T18:43:54;7.90;55.40
1337;DHT22;662;48.814;9.318;2023-01-10T18:46:21;7.90;55.40
1337;DHT22;662;48.814;9.318;2023-01-10T18:48:47;7.90;55.40
1337;DHT22;662;48.814;9.318;2023-01-10T18:51:16;7.90;55.40
1337;DHT22;662;48.814;9.318;2023-01-10T18:53:43;7.90;55.40